CYXU

London Airport

London, Ontario, Canada
METAR CYXU 240100Z 31004KT 15SM FEW250 18/06 A3016 RMK CI1 SLP213 DENSITY ALT 1300FT
Observed Flight Rules
May-24 @ 01:00 UTC (an hour ago) Visual Flight Rules
Wind Visibility Clouds
310° at 4 knots 15 miles
  • Few at 25,000' AGL
Temperatures Readings
Current 18°C / 64°F
Dewpoint 6°C / 43°F
Humidity 46%
Altimeter 30.16" Hg
Pressure 1021.3 hPa
Elevation 278
METAR CYXU 240100Z 31004KT 15SM FEW250 18/06 A3016 RMK CI1 SLP213 DENSITY ALT 1300FT
Observed Flight Rules
May-24 @ 01:00 UTC
(an hour ago)
VFR
Wind Visibility
310° at 4 knots 15 miles
Clouds
  • Few at 25,000' AGL
Temperature Dewpoint
18°C / 64°F 6°C / 43°F
Humidity Altimeter Pressure
46% 30.16" Hg 1021.3 hPa